Time;durP1;ratioP1;P1;durP2;ratioP2;P2;SDS_P1;SDS_P2;PMS_P1;PMS_P2;Temp;Humidity;BMP_temperature;BMP_pressure;BME280_temperature;BME280_humidity;BME280_pressure;Samples;Min_cycle;Max_cycle;Signal;HPM_P1;HPM_P2
2019/04/25 00:01:24;;;;;;;4.4;1.4;;;;;;;16.95;48.38281;955.2285;;;;
2019/04/25 00:03:54;;;;;;;6.3;1.2;;;;;;;16.82;48.72461;955.3063;;;;
2019/04/25 00:06:33;;;;;;;8.4;1.4;;;;;;;16.84;48.76172;955.2847;;;;
2019/04/25 00:08:58;;;;;;;6;1.5;;;;;;;16.94;48.46582;955.3108;;;;
2019/04/25 00:11:24;;;;;;;6.6;1.4;;;;;;;16.95;48.29883;955.358;;;;
2019/04/25 00:14:13;;;;;;;6.9;1.5;;;;;;;16.9;48.33008;955.3373;;;;
2019/04/25 00:16:47;;;;;;;6.7;1.5;;;;;;;16.58;48.92383;955.384;;;;
2019/04/25 00:19:12;;;;;;;5.6;1.5;;;;;;;16.45;49.39648;955.4068;;;;
2019/04/25 00:24:11;;;;;;;5;1.3;;;;;;;16.32;49.51172;955.4075;;;;
2019/04/25 00:26:35;;;;;;;5.1;1.3;;;;;;;16.22;49.71484;955.415;;;;
2019/04/25 00:28:56;;;;;;;5.6;1.2;;;;;;;16.05;50.04004;955.4724;;;;
2019/04/25 00:31:23;;;;;;;4.6;1.4;;;;;;;16.01;50.30762;955.4409;;;;
2019/04/25 00:33:49;;;;;;;8.3;1.4;;;;;;;16.03;50.27539;955.423;;;;
2019/04/25 00:36:34;;;;;;;6.8;1.3;;;;;;;15.95;50.38379;955.4456;;;;
2019/04/25 00:39:14;;;;;;;5.3;1.3;;;;;;;15.89;50.52051;955.5186;;;;
2019/04/25 00:41:39;;;;;;;5.4;1.5;;;;;;;15.77;50.91016;955.5383;;;;
2019/04/25 00:44:27;;;;;;;4.5;1.4;;;;;;;15.84;50.37207;955.5726;;;;
2019/04/25 00:46:52;;;;;;;6.3;1.3;;;;;;;15.81;50.33301;955.5566;;;;
2019/04/25 00:49:26;;;;;;;5.8;1.4;;;;;;;15.84;50.41895;955.6738;;;;
2019/04/25 00:51:51;;;;;;;5.7;1.4;;;;;;;15.69;50.91211;955.6303;;;;
2019/04/25 00:54:16;;;;;;;5.3;1.3;;;;;;;15.21;52.38379;955.6666;;;;
2019/04/25 00:56:41;;;;;;;6.7;1.6;;;;;;;15.38;51.6582;955.5705;;;;
2019/04/25 00:59:22;;;;;;;5.5;1.3;;;;;;;15.64;50.7998;955.6041;;;;
2019/04/25 01:02:49;;;;;;;3.1;1.3;;;;;;;15.73;50.46582;955.5963;;;;
2019/04/25 01:05:13;;;;;;;3.9;1.4;;;;;;;15.75;50.15918;955.6272;;;;
2019/04/25 01:07:43;;;;;;;8.5;1.3;;;;;;;15.68;50.30566;955.628;;;;
2019/04/25 01:10:08;;;;;;;7.6;1.6;;;;;;;15.82;49.69336;955.6414;;;;
2019/04/25 01:12:33;;;;;;;4.4;1.5;;;;;;;15.88;49.48633;955.5123;;;;
2019/04/25 01:15:15;;;;;;;3.6;1.4;;;;;;;15.9;49.32324;955.5245;;;;
2019/04/25 01:17:40;;;;;;;5.1;1.4;;;;;;;15.81;49.39648;955.5134;;;;
2019/04/25 01:20:05;;;;;;;8.1;1.5;;;;;;;15.78;49.42773;955.4542;;;;
2019/04/25 01:22:31;;;;;;;5.7;1.4;;;;;;;15.77;49.36816;955.4333;;;;
2019/04/25 01:25:00;;;;;;;3.6;1.4;;;;;;;15.82;49.1709;955.4462;;;;
2019/04/25 01:27:42;;;;;;;4.1;1.4;;;;;;;15.74;49.50684;955.4751;;;;
2019/04/25 01:30:13;;;;;;;6.7;1.4;;;;;;;15.53;49.94531;955.5844;;;;
2019/04/25 01:32:43;;;;;;;4.9;1.3;;;;;;;15.59;49.7627;955.5234;;;;
2019/04/25 01:35:21;;;;;;;8.6;1.4;;;;;;;15.54;49.86328;955.4556;;;;
2019/04/25 01:38:30;;;;;;;6.7;1.6;;;;;;;15.54;50.01758;955.5342;;;;
2019/04/25 01:40:32;;;;;;;5.8;1.5;;;;;;;15.49;50.05859;955.5304;;;;
2019/04/25 01:42:41;;;;;;;5.8;1.4;;;;;;;15.56;49.85352;955.4861;;;;
2019/04/25 01:44:56;;;;;;;5.5;1.5;;;;;;;15.48;49.99902;955.4625;;;;
2019/04/25 01:47:22;;;;;;;5.6;1.5;;;;;;;15.56;49.88867;955.4338;;;;
2019/04/25 01:49:47;;;;;;;5;1.5;;;;;;;15.49;50.15332;955.4005;;;;
2019/04/25 01:52:28;;;;;;;6.6;1.7;;;;;;;15.43;50.81152;955.43;;;;
2019/04/25 01:54:56;;;;;;;6.4;1.6;;;;;;;15.41;50.9502;955.3373;;;;
2019/04/25 01:57:21;;;;;;;5.5;1.6;;;;;;;15.36;51.18164;955.3616;;;;
2019/04/25 01:59:46;;;;;;;4.6;1.8;;;;;;;15.36;51.54883;955.3484;;;;
2019/04/25 02:02:17;;;;;;;5.4;1.8;;;;;;;15.31;51.74512;955.4102;;;;
2019/04/25 02:04:36;;;;;;;8.5;2;;;;;;;15.29;51.70703;955.3834;;;;
2019/04/25 02:07:03;;;;;;;6.2;1.9;;;;;;;15.36;51.64453;955.4256;;;;
2019/04/25 02:09:28;;;;;;;6.6;1.8;;;;;;;15.36;51.44336;955.5136;;;;
2019/04/25 02:12:25;;;;;;;6.7;1.7;;;;;;;15.37;51.0293;955.5514;;;;
2019/04/25 02:14:39;;;;;;;4.6;1.7;;;;;;;15.34;51.02539;955.5273;;;;
2019/04/25 02:17:04;;;;;;;5.2;1.5;;;;;;;15.28;51.31445;955.5306;;;;
2019/04/25 02:19:40;;;;;;;6;1.6;;;;;;;15.25;51.40625;955.5315;;;;
2019/04/25 02:22:05;;;;;;;6.5;1.7;;;;;;;15.26;51.37109;955.5616;;;;
2019/04/25 02:24:30;;;;;;;5.3;1.6;;;;;;;15.23;51.48535;955.6856;;;;
2019/04/25 02:26:55;;;;;;;6.1;1.5;;;;;;;15.21;51.69727;955.6666;;;;
2019/04/25 02:29:21;;;;;;;6.1;1.7;;;;;;;15.17;52.02441;955.601;;;;
2019/04/25 02:31:46;;;;;;;2.5;1.4;;;;;;;15.18;51.9541;955.6164;;;;
2019/04/25 02:34:11;;;;;;;5;1.6;;;;;;;15.14;52.20996;955.6426;;;;
2019/04/25 02:36:42;;;;;;;5.8;1.6;;;;;;;15.03;52.44434;955.709;;;;
2019/04/25 02:39:11;;;;;;;5.4;1.5;;;;;;;14.99;52.72461;955.6325;;;;
2019/04/25 02:41:46;;;;;;;8.1;1.5;;;;;;;14.94;52.58887;955.6512;;;;
2019/04/25 02:44:14;;;;;;;4.3;1.4;;;;;;;14.9;52.63184;955.6249;;;;
2019/04/25 02:49:25;;;;;;;5.8;1.7;;;;;;;14.83;52.66992;955.601;;;;
2019/04/25 02:51:44;;;;;;;5.7;1.7;;;;;;;14.82;52.71582;955.6287;;;;
2019/04/25 02:54:02;;;;;;;8.3;1.6;;;;;;;14.82;52.7998;955.5933;;;;
2019/04/25 02:56:27;;;;;;;5.8;1.8;;;;;;;14.86;52.89844;955.5987;;;;
2019/04/25 02:58:54;;;;;;;10.9;1.8;;;;;;;14.85;53.20605;955.6225;;;;
2019/04/25 03:01:19;;;;;;;10.5;1.7;;;;;;;14.82;53.35547;955.6117;;;;
2019/04/25 03:03:45;;;;;;;5.6;1.6;;;;;;;14.78;53.65723;955.681;;;;
2019/04/25 03:06:10;;;;;;;10.3;2.2;;;;;;;14.68;53.88281;955.6133;;;;
2019/04/25 03:08:35;;;;;;;7.1;1.7;;;;;;;14.7;53.71973;955.6124;;;;
2019/04/25 03:11:01;;;;;;;4.4;1.6;;;;;;;14.6;54.03906;955.5369;;;;
2019/04/25 03:13:26;;;;;;;7.7;1.6;;;;;;;14.55;54.13867;955.5044;;;;
2019/04/25 03:15:51;;;;;;;5.2;1.4;;;;;;;14.6;53.66016;955.5514;;;;
2019/04/25 03:18:18;;;;;;;7.4;1.6;;;;;;;14.59;53.71875;955.4821;;;;
2019/04/25 03:21:03;;;;;;;5.3;1.6;;;;;;;14.58;53.46875;955.4945;;;;
2019/04/25 03:23:11;;;;;;;5.9;1.7;;;;;;;14.54;53.2627;955.4311;;;;
2019/04/25 03:25:47;;;;;;;4;1.7;;;;;;;14.52;53.55566;955.4881;;;;
2019/04/25 03:28:22;;;;;;;7.1;1.8;;;;;;;14.53;53.50879;955.442;;;;
2019/04/25 03:31:01;;;;;;;4.5;1.7;;;;;;;14.53;53.47363;955.412;;;;
2019/04/25 03:33:26;;;;;;;5.4;1.6;;;;;;;14.53;53.47266;955.3387;;;;
2019/04/25 03:35:51;;;;;;;5.2;1.7;;;;;;;14.5;53.52832;955.4536;;;;
2019/04/25 03:38:16;;;;;;;5.1;1.6;;;;;;;14.44;53.67578;955.4511;;;;
2019/04/25 03:40:41;;;;;;;11.4;1.9;;;;;;;14.47;53.52539;955.4803;;;;
2019/04/25 03:43:08;;;;;;;9.2;1.9;;;;;;;14.37;54.58887;955.4702;;;;
2019/04/25 03:45:33;;;;;;;4.9;2;;;;;;;14.42;54.37109;955.4426;;;;
2019/04/25 03:47:58;;;;;;;9.9;2;;;;;;;14.45;53.88965;955.5073;;;;
2019/04/25 03:50:24;;;;;;;5.3;1.9;;;;;;;14.39;54.44922;955.428;;;;
2019/04/25 03:52:49;;;;;;;6.1;2;;;;;;;14.26;56.41895;955.3488;;;;
2019/04/25 03:55:16;;;;;;;5.6;1.9;;;;;;;14.37;55.32324;955.3563;;;;
2019/04/25 03:57:42;;;;;;;6.5;2.1;;;;;;;14.42;55.30469;955.4088;;;;
2019/04/25 04:02:26;;;;;;;5.8;2.4;;;;;;;14.4;54.75879;955.4509;;;;
2019/04/25 04:04:52;;;;;;;7.4;2.1;;;;;;;14.39;54.72168;955.4149;;;;
2019/04/25 04:07:17;;;;;;;7.2;2.3;;;;;;;14.38;54.99219;955.4426;;;;
2019/04/25 04:09:44;;;;;;;6.3;2.3;;;;;;;14.41;55.00879;955.4626;;;;
2019/04/25 04:12:09;;;;;;;8.8;2.1;;;;;;;14.4;55.38574;955.4286;;;;
2019/04/25 04:14:37;;;;;;;6.9;2.3;;;;;;;14.39;55.85645;955.548;;;;
2019/04/25 04:17:13;;;;;;;5.5;2.2;;;;;;;14.39;55.89355;955.5572;;;;
2019/04/25 04:19:28;;;;;;;8.2;2.1;;;;;;;14.42;55.5293;955.5528;;;;
2019/04/25 04:21:58;;;;;;;6.7;2.2;;;;;;;14.35;55.86426;955.5609;;;;
2019/04/25 04:24:21;;;;;;;5;2.3;;;;;;;14.39;55.73926;955.6096;;;;
2019/04/25 04:27:05;;;;;;;9.4;2.7;;;;;;;14.39;55.77539;955.6358;;;;
2019/04/25 04:29:08;;;;;;;8.5;2.8;;;;;;;14.31;56.21289;955.6262;;;;
2019/04/25 04:31:33;;;;;;;7.8;2.7;;;;;;;14.39;55.95215;955.6488;;;;
2019/04/25 04:33:58;;;;;;;5.2;2.3;;;;;;;14.43;55.75684;955.5796;;;;
2019/04/25 04:37:42;;;;;;;8.2;2.4;;;;;;;14.43;56.28906;955.6451;;;;
2019/04/25 04:40:07;;;;;;;5.4;2.5;;;;;;;14.42;56.46289;955.5959;;;;
2019/04/25 04:42:37;;;;;;;7.2;2.4;;;;;;;14.43;56.40625;955.7291;;;;
2019/04/25 04:45:03;;;;;;;8.1;2.5;;;;;;;14.39;56.93262;955.7816;;;;
2019/04/25 04:47:29;;;;;;;7.3;2.5;;;;;;;14.37;56.83691;955.7491;;;;
2019/04/25 04:49:54;;;;;;;7.3;2.7;;;;;;;14.32;57.51563;955.7631;;;;
2019/04/25 04:52:21;;;;;;;12.6;2.6;;;;;;;14.43;56.92773;955.7498;;;;
2019/04/25 04:54:46;;;;;;;9.2;2.6;;;;;;;14.54;56.79883;955.6424;;;;
2019/04/25 04:57:16;;;;;;;7.2;2.5;;;;;;;14.6;56.41699;955.6678;;;;
2019/04/25 04:59:42;;;;;;;7.6;2.6;;;;;;;14.63;56.33691;955.7024;;;;
2019/04/25 05:02:24;;;;;;;8.5;2.6;;;;;;;14.6;57.01953;955.6732;;;;
2019/04/25 05:04:43;;;;;;;8;2.4;;;;;;;14.74;56.2334;955.6833;;;;
2019/04/25 05:07:09;;;;;;;7.5;2.2;;;;;;;14.76;56.55469;955.7289;;;;
2019/04/25 05:09:26;;;;;;;8.9;2.6;;;;;;;14.82;56.20801;955.6772;;;;
2019/04/25 05:11:50;;;;;;;8.5;2.3;;;;;;;14.84;56.18652;955.6689;;;;
2019/04/25 05:14:25;;;;;;;6.6;2.3;;;;;;;14.74;56.56445;955.7056;;;;
2019/04/25 05:16:51;;;;;;;9.2;2.3;;;;;;;14.7;57.02051;955.775;;;;
2019/04/25 05:19:16;;;;;;;6.9;2;;;;;;;14.57;56.87402;955.7356;;;;
2019/04/25 05:21:42;;;;;;;8.6;2.3;;;;;;;14.59;56.89844;955.811;;;;
2019/04/25 05:24:07;;;;;;;4.4;1.8;;;;;;;14.67;57.02832;955.8466;;;;
2019/04/25 05:26:32;;;;;;;6.7;2.1;;;;;;;14.66;56.96875;955.8011;;;;
2019/04/25 05:29:12;;;;;;;6.2;1.7;;;;;;;14.86;56.32031;955.8122;;;;
2019/04/25 05:31:48;;;;;;;6.8;2.2;;;;;;;14.92;56.09082;955.8391;;;;
2019/04/25 05:34:02;;;;;;;7.2;2.3;;;;;;;14.97;55.84668;955.8523;;;;
2019/04/25 05:36:38;;;;;;;8.3;2.1;;;;;;;15.02;55.51172;955.877;;;;
2019/04/25 05:38:54;;;;;;;14.6;2.5;;;;;;;14.88;56.00293;955.8223;;;;
2019/04/25 05:41:38;;;;;;;8.9;2.2;;;;;;;14.79;55.86133;955.796;;;;
2019/04/25 05:43:48;;;;;;;9.1;1.9;;;;;;;14.92;55.80664;955.7736;;;;
2019/04/25 05:46:13;;;;;;;10.8;2.2;;;;;;;15.11;55.26172;955.7311;;;;
2019/04/25 05:48:39;;;;;;;8.3;2.3;;;;;;;15.2;54.94238;955.7126;;;;
2019/04/25 05:51:04;;;;;;;9.4;2;;;;;;;14.94;55.2998;955.6866;;;;
2019/04/25 05:53:39;;;;;;;8.6;1.9;;;;;;;15.09;55.21289;955.7174;;;;
2019/04/25 05:56:04;;;;;;;5.6;1.9;;;;;;;15.07;54.40527;955.6602;;;;
2019/04/25 05:58:31;;;;;;;6.9;2.1;;;;;;;15.07;54.49902;955.6135;;;;
2019/04/25 06:01:13;;;;;;;7.7;1.9;;;;;;;15.16;54.19043;955.6155;;;;
2019/04/25 06:03:58;;;;;;;5.3;1.9;;;;;;;15.21;53.62793;955.6403;;;;
2019/04/25 06:06:23;;;;;;;7.6;1.8;;;;;;;15.16;54.20117;955.634;;;;
2019/04/25 06:09:11;;;;;;;8;1.8;;;;;;;15.16;53.93066;955.685;;;;
2019/04/25 06:11:44;;;;;;;5.7;1.6;;;;;;;15.47;52.90137;955.6753;;;;
2019/04/25 06:13:54;;;;;;;6.8;1.7;;;;;;;15.58;52.53516;955.6839;;;;
2019/04/25 06:16:23;;;;;;;8.3;1.8;;;;;;;15.56;52.34277;955.6006;;;;
2019/04/25 06:21:11;;;;;;;7;1.6;;;;;;;15.45;51.71289;955.6933;;;;
2019/04/25 06:24:11;;;;;;;10.8;1.7;;;;;;;15.56;51.77539;955.6344;;;;
2019/04/25 06:26:02;;;;;;;5.8;1.6;;;;;;;15.51;51.16309;955.6415;;;;
2019/04/25 06:28:28;;;;;;;12.1;1.6;;;;;;;15.72;50.51172;955.6202;;;;
2019/04/25 06:30:59;;;;;;;6;1.5;;;;;;;15.71;50.29688;955.6442;;;;
2019/04/25 06:33:29;;;;;;;9.7;1.7;;;;;;;16.04;49.06445;955.7025;;;;
2019/04/25 06:35:54;;;;;;;5.9;1.6;;;;;;;16.14;48.55566;955.6055;;;;
2019/04/25 06:38:24;;;;;;;9.4;1.6;;;;;;;16.14;47.8418;955.5452;;;;
2019/04/25 06:40:49;;;;;;;6.4;1.4;;;;;;;16.34;47.1875;955.6354;;;;
2019/04/25 06:43:14;;;;;;;3.2;1.3;;;;;;;16.48;45.89551;955.6577;;;;
2019/04/25 06:45:49;;;;;;;6.8;1.4;;;;;;;16.58;44.90723;955.6074;;;;
2019/04/25 06:48:18;;;;;;;7.2;1.2;;;;;;;16.77;44.37988;955.6498;;;;
2019/04/25 06:50:30;;;;;;;5.3;1.3;;;;;;;16.93;43.72949;955.5861;;;;
2019/04/25 06:53:05;;;;;;;4.8;1.3;;;;;;;17.02;43.0498;955.5786;;;;
2019/04/25 06:55:30;;;;;;;5.7;1.2;;;;;;;17.39;42.37109;955.4708;;;;
2019/04/25 06:57:55;;;;;;;7.8;1.1;;;;;;;17.53;41.30078;955.5714;;;;
2019/04/25 07:00:22;;;;;;;8.8;1.2;;;;;;;17.51;40.25;955.4711;;;;
2019/04/25 07:02:47;;;;;;;5.3;1.2;;;;;;;17.86;39.28223;955.4832;;;;
2019/04/25 07:05:14;;;;;;;6.9;1.1;;;;;;;17.78;38.55957;955.4919;;;;
2019/04/25 07:07:40;;;;;;;7;1.7;;;;;;;17.76;38.15234;955.4872;;;;
2019/04/25 07:10:05;;;;;;;7.4;1.3;;;;;;;17.98;38.24414;955.3947;;;;
2019/04/25 07:12:34;;;;;;;7.2;1.3;;;;;;;18.14;38.19824;955.4525;;;;
2019/04/25 07:14:59;;;;;;;6.5;1;;;;;;;18.23;37.63379;955.5003;;;;
2019/04/25 07:17:24;;;;;;;5.1;1.1;;;;;;;18.52;36.70313;955.4624;;;;
2019/04/25 07:19:49;;;;;;;4;0.9;;;;;;;18.72;35.59668;955.455;;;;
2019/04/25 07:22:16;;;;;;;9.6;1.2;;;;;;;18.94;35.94922;955.4066;;;;
2019/04/25 07:24:41;;;;;;;5.6;0.9;;;;;;;18.9;35.14551;955.4358;;;;
2019/04/25 07:27:24;;;;;;;7.8;1;;;;;;;19.14;35.20117;955.4406;;;;
2019/04/25 07:29:53;;;;;;;3.9;0.8;;;;;;;19.37;34.37012;955.3505;;;;
2019/04/25 07:32:25;;;;;;;7;1;;;;;;;19.29;34.66309;955.4086;;;;
2019/04/25 07:34:26;;;;;;;4.4;0.9;;;;;;;19.47;33.85156;955.2363;;;;
2019/04/25 07:36:51;;;;;;;7;1;;;;;;;19.45;34.125;955.2753;;;;
2019/04/25 07:39:16;;;;;;;5.8;1.1;;;;;;;19.73;34.31445;955.2843;;;;
2019/04/25 07:41:44;;;;;;;5.9;1.3;;;;;;;19.49;33.53027;955.3764;;;;
2019/04/25 07:44:11;;;;;;;5.5;1.1;;;;;;;19.51;32.94531;955.3016;;;;
2019/04/25 07:46:36;;;;;;;6.8;1.1;;;;;;;19.82;33.9502;955.1924;;;;
2019/04/25 07:49:01;;;;;;;5;1.1;;;;;;;19.98;33.51953;955.147;;;;
2019/04/25 07:51:28;;;;;;;7.9;1;;;;;;;20.12;33.72168;955.1334;;;;
2019/04/25 07:53:54;;;;;;;57.6;2.3;;;;;;;20.06;33.19043;955.1074;;;;
2019/04/25 07:56:21;;;;;;;5.3;1.2;;;;;;;20.1;33.71973;955.1345;;;;
2019/04/25 08:00:13;;;;;;;10.1;1;;;;;;;20.04;32.94922;955.073;;;;
2019/04/25 08:02:38;;;;;;;9.5;1.1;;;;;;;19.95;33.26563;955.1765;;;;
2019/04/25 08:05:09;;;;;;;5.4;1.1;;;;;;;20.19;33.2959;955.0558;;;;
2019/04/25 08:07:29;;;;;;;5.7;1.1;;;;;;;20.37;32.62695;955.0014;;;;
2019/04/25 08:09:54;;;;;;;8;1.4;;;;;;;20.58;32.7373;955.0343;;;;
2019/04/25 08:12:19;;;;;;;6.5;1.2;;;;;;;20.65;32.35938;955.0754;;;;
2019/04/25 08:14:51;;;;;;;6.1;1.1;;;;;;;20.86;31.94141;955.1022;;;;
2019/04/25 08:17:14;;;;;;;5.2;1.1;;;;;;;20.87;32.50684;955.0344;;;;
2019/04/25 08:19:39;;;;;;;11.3;1.4;;;;;;;21.07;31.75391;955.0233;;;;
2019/04/25 08:22:08;;;;;;;13.7;1.1;;;;;;;21.49;31.6748;954.9536;;;;
2019/04/25 08:24:34;;;;;;;6.8;1;;;;;;;21.54;31.67871;954.9147;;;;
2019/04/25 08:26:59;;;;;;;6.5;1.2;;;;;;;21.47;30.89258;954.9703;;;;
2019/04/25 08:29:25;;;;;;;4.5;1;;;;;;;21.68;31.21973;954.9169;;;;
2019/04/25 08:31:51;;;;;;;5.9;1.1;;;;;;;21.79;31.0957;954.9661;;;;
2019/04/25 08:34:17;;;;;;;6.5;1.3;;;;;;;21.92;31.5625;954.9629;;;;
2019/04/25 08:36:42;;;;;;;5.7;1.3;;;;;;;21.87;30.21094;954.8653;;;;
2019/04/25 08:39:11;;;;;;;7.7;1.1;;;;;;;22.05;31.48633;954.8173;;;;
2019/04/25 08:41:36;;;;;;;7.2;1.1;;;;;;;22.14;30.77051;954.8544;;;;
2019/04/25 08:44:01;;;;;;;6.7;1;;;;;;;22.39;30.2832;954.7862;;;;
2019/04/25 08:46:29;;;;;;;9.1;1;;;;;;;22.28;29.27637;954.9324;;;;
2019/04/25 08:51:25;;;;;;;9.7;1.4;;;;;;;22.6;30.24805;954.8702;;;;
2019/04/25 08:53:56;;;;;;;3.4;1;;;;;;;22.61;29.55078;954.8059;;;;
2019/04/25 08:56:17;;;;;;;15.2;1.2;;;;;;;22.73;29.3291;954.8306;;;;
2019/04/25 09:07:58;;;;;;;9.7;1.2;;;;;;;23.25;28.66504;954.846;;;;
2019/04/25 09:10:25;;;;;;;7.2;1.1;;;;;;;23.42;29.12109;954.8686;;;;
2019/04/25 09:12:50;;;;;;;7.2;1.2;;;;;;;23.3;28.69141;954.8617;;;;
2019/04/25 09:15:15;;;;;;;8;1.6;;;;;;;23.61;28.49414;954.8323;;;;
2019/04/25 09:17:40;;;;;;;6.8;1.2;;;;;;;23.91;29.41992;954.8065;;;;
2019/04/25 09:20:05;;;;;;;9;1.1;;;;;;;23.89;28.7666;954.7361;;;;
2019/04/25 09:22:31;;;;;;;7.4;1.3;;;;;;;24.1;27.59473;954.7964;;;;
2019/04/25 09:24:56;;;;;;;10;1.2;;;;;;;24.2;27.1416;954.6703;;;;
2019/04/25 09:27:21;;;;;;;7;1.2;;;;;;;24.23;27.42188;954.6856;;;;
2019/04/25 09:29:46;;;;;;;10.5;1.1;;;;;;;24.27;28.08887;954.7067;;;;
2019/04/25 09:32:11;;;;;;;7.7;1.2;;;;;;;24.55;27.31934;954.6038;;;;
2019/04/25 09:34:36;;;;;;;10.8;1.3;;;;;;;24.57;27.37012;954.5924;;;;
2019/04/25 09:37:01;;;;;;;3.9;1.1;;;;;;;24.64;26.74512;954.4957;;;;
2019/04/25 09:39:42;;;;;;;5.9;1.3;;;;;;;24.93;27.0166;954.5655;;;;
2019/04/25 09:41:52;;;;;;;7;1.3;;;;;;;24.86;26.94043;954.5614;;;;
2019/04/25 09:44:22;;;;;;;10.7;1.3;;;;;;;24.73;26.2666;954.5323;;;;
2019/04/25 09:46:42;;;;;;;8.4;1.3;;;;;;;25.03;26.86523;954.4841;;;;
2019/04/25 09:49:26;;;;;;;9.3;1.3;;;;;;;25.16;26.55762;954.4614;;;;
2019/04/25 09:51:40;;;;;;;5.6;1.2;;;;;;;25.13;26.47168;954.4367;;;;
2019/04/25 09:54:16;;;;;;;9.7;1.2;;;;;;;25.09;27.20801;954.488;;;;
2019/04/25 09:56:31;;;;;;;9.9;1.3;;;;;;;25.04;26.8291;954.4231;;;;
2019/04/25 09:59:01;;;;;;;5.9;1.3;;;;;;;25.15;27.1875;954.4597;;;;
2019/04/25 10:01:16;;;;;;;3.9;1.1;;;;;;;25.4;26.0752;954.3915;;;;
2019/04/25 10:03:56;;;;;;;9.2;1.2;;;;;;;25.4;25.16602;954.3516;;;;
2019/04/25 10:06:23;;;;;;;6.8;1.3;;;;;;;25.49;25.40137;954.405;;;;
2019/04/25 10:08:48;;;;;;;6;1.1;;;;;;;25.56;26;954.3025;;;;
2019/04/25 10:11:14;;;;;;;7.4;1.2;;;;;;;25.83;25.85742;954.3597;;;;
2019/04/25 10:13:40;;;;;;;7.2;1.2;;;;;;;25.9;24.85449;954.2586;;;;
2019/04/25 10:16:09;;;;;;;9;1.2;;;;;;;25.96;25.53711;954.2527;;;;
2019/04/25 10:18:34;;;;;;;8.5;1.3;;;;;;;26.11;25.46094;954.0485;;;;
2019/04/25 10:21:00;;;;;;;5.7;1.2;;;;;;;26.33;23.21387;954.0653;;;;
2019/04/25 10:23:25;;;;;;;5;1.1;;;;;;;26.33;22.5459;954.2598;;;;
2019/04/25 10:25:53;;;;;;;5.3;1.3;;;;;;;26.32;24.03906;954.1342;;;;
2019/04/25 10:28:18;;;;;;;3.1;1.3;;;;;;;26.27;23.67188;954.0541;;;;
2019/04/25 10:30:45;;;;;;;7.1;1.4;;;;;;;26.6;24.29785;954.0358;;;;
2019/04/25 10:33:10;;;;;;;6.7;1.5;;;;;;;26.74;23.19922;953.995;;;;
2019/04/25 10:35:35;;;;;;;5.6;1.4;;;;;;;26.5;22.25098;953.9943;;;;
2019/04/25 10:38:01;;;;;;;3.5;0.9;;;;;;;26.75;21.48438;954.0026;;;;
2019/04/25 10:40:26;;;;;;;4.3;1;;;;;;;26.53;20.81836;953.8568;;;;
2019/04/25 10:42:51;;;;;;;5;1.1;;;;;;;26.88;21.40625;953.8574;;;;
2019/04/25 10:45:16;;;;;;;5.1;1;;;;;;;26.58;19.33789;953.9196;;;;
2019/04/25 10:50:26;;;;;;;6.9;1;;;;;;;26.65;18.63574;953.822;;;;
2019/04/25 10:52:51;;;;;;;2;0.8;;;;;;;26.61;18.91309;953.8603;;;;
2019/04/25 10:55:21;;;;;;;4.3;1;;;;;;;26.49;19.33398;953.8759;;;;
2019/04/25 10:57:52;;;;;;;2.5;0.9;;;;;;;26.28;18.23145;953.9131;;;;
2019/04/25 11:00:24;;;;;;;3.2;0.9;;;;;;;26.26;19.00781;953.8635;;;;
2019/04/25 11:02:50;;;;;;;1.3;0.8;;;;;;;26.66;19.38965;953.78;;;;
2019/04/25 11:05:28;;;;;;;1.7;0.7;;;;;;;26.73;19.58789;953.8636;;;;
2019/04/25 11:07:53;;;;;;;5.7;1;;;;;;;26.29;18.97266;953.8614;;;;
2019/04/25 11:10:19;;;;;;;3.8;0.8;;;;;;;26.14;19.00293;953.8672;;;;
2019/04/25 11:12:47;;;;;;;1.8;0.9;;;;;;;26.05;20.00684;953.7933;;;;
2019/04/25 11:15:12;;;;;;;2.7;0.8;;;;;;;26.4;18.625;953.7316;;;;
2019/04/25 11:17:38;;;;;;;3.2;0.9;;;;;;;26.69;18.77051;953.7226;;;;
2019/04/25 11:20:07;;;;;;;3.7;0.8;;;;;;;27.01;18.68652;953.7477;;;;
2019/04/25 11:22:41;;;;;;;3.3;0.8;;;;;;;27.01;18.5166;953.6674;;;;
2019/04/25 11:25:06;;;;;;;4.3;0.8;;;;;;;27.18;17.86621;953.6855;;;;
2019/04/25 11:27:32;;;;;;;3;0.8;;;;;;;27.39;18.70215;953.6418;;;;
2019/04/25 11:29:57;;;;;;;3.9;0.8;;;;;;;27.4;18.3623;953.5578;;;;
2019/04/25 11:32:23;;;;;;;4.9;1;;;;;;;27.24;18.76953;953.5361;;;;
2019/04/25 11:34:47;;;;;;;3.1;0.8;;;;;;;27.11;18.8125;953.4608;;;;
2019/04/25 11:37:27;;;;;;;4.5;1;;;;;;;27.04;19.2959;953.4289;;;;
2019/04/25 11:40:05;;;;;;;4;1;;;;;;;26.74;19.4541;953.3767;;;;
2019/04/25 11:42:16;;;;;;;3.8;0.8;;;;;;;26.87;19.0459;953.4871;;;;
2019/04/25 11:44:41;;;;;;;3;1.1;;;;;;;26.9;18.79199;953.3571;;;;
2019/04/25 11:47:06;;;;;;;4.4;1;;;;;;;26.74;18.80957;953.3999;;;;
2019/04/25 11:49:52;;;;;;;1.7;0.8;;;;;;;26.71;18.0293;953.4342;;;;
2019/04/25 11:52:18;;;;;;;2.8;0.9;;;;;;;26.45;17.58203;953.3307;;;;
2019/04/25 11:54:43;;;;;;;1.6;0.7;;;;;;;26.66;17.9668;953.3585;;;;
2019/04/25 11:57:10;;;;;;;4.4;0.8;;;;;;;26.7;17.91992;953.383;;;;
2019/04/25 11:59:34;;;;;;;2.4;0.7;;;;;;;26.53;17.05078;953.3113;;;;
2019/04/25 12:01:59;;;;;;;3.4;0.7;;;;;;;26.61;16.98047;953.4158;;;;
2019/04/25 12:04:36;;;;;;;3.2;0.7;;;;;;;26.73;16.66895;953.4362;;;;
2019/04/25 12:07:13;;;;;;;2.4;0.7;;;;;;;26.66;16.8125;953.305;;;;
2019/04/25 12:09:42;;;;;;;5.2;0.8;;;;;;;26.63;16.7627;953.3641;;;;
2019/04/25 12:12:12;;;;;;;4.7;0.8;;;;;;;26.6;16.68848;953.4788;;;;
2019/04/25 12:14:37;;;;;;;5.5;0.8;;;;;;;26.93;17.44238;953.3281;;;;
2019/04/25 12:17:07;;;;;;;3.9;0.7;;;;;;;26.81;16.74512;953.3805;;;;
2019/04/25 12:19:33;;;;;;;3.4;0.7;;;;;;;26.8;16.35547;953.2545;;;;
2019/04/25 12:21:59;;;;;;;1.8;0.6;;;;;;;26.96;16.56836;953.1202;;;;
2019/04/25 12:24:24;;;;;;;4.5;0.7;;;;;;;27.27;16.62793;953.116;;;;
2019/04/25 12:26:52;;;;;;;3.9;0.7;;;;;;;27.14;16.27051;953.1494;;;;
2019/04/25 12:29:18;;;;;;;3.8;0.8;;;;;;;27.23;16.06641;953.1561;;;;
2019/04/25 12:31:45;;;;;;;4.3;0.8;;;;;;;26.95;16.58008;953.0553;;;;
2019/04/25 12:34:23;;;;;;;3.6;0.7;;;;;;;27.2;16.28516;953.0895;;;;
2019/04/25 12:36:50;;;;;;;3;0.7;;;;;;;27.34;16.50879;953.1364;;;;
2019/04/25 12:39:17;;;;;;;3.2;0.8;;;;;;;27.56;16.32227;953.0276;;;;
2019/04/25 12:41:42;;;;;;;6.9;1;;;;;;;27.43;15.70801;953.057;;;;
2019/04/25 12:45:13;;;;;;;3.3;0.6;;;;;;;27.6;15.95801;952.9623;;;;
2019/04/25 12:46:38;;;;;;;1.3;0.6;;;;;;;27.48;15.50293;953.1811;;;;
2019/04/25 12:49:13;;;;;;;1.7;0.6;;;;;;;27.47;15.55176;953.015;;;;
2019/04/25 12:51:59;;;;;;;2;0.8;;;;;;;27.5;15.6377;953.0605;;;;
2019/04/25 12:54:25;;;;;;;3;0.9;;;;;;;27.85;16.67383;952.9462;;;;
2019/04/25 12:56:50;;;;;;;2.7;0.8;;;;;;;27.75;16.24414;952.976;;;;
2019/04/25 12:59:15;;;;;;;2.7;0.7;;;;;;;27.86;16.15039;952.9137;;;;
2019/04/25 13:01:40;;;;;;;3.5;0.9;;;;;;;27.9;15.78613;952.8387;;;;
2019/04/25 13:04:08;;;;;;;3.7;0.9;;;;;;;27.61;15.27637;952.7938;;;;
2019/04/25 13:06:33;;;;;;;5.3;0.8;;;;;;;27.45;16.25781;952.8717;;;;
2019/04/25 13:08:58;;;;;;;5.1;0.8;;;;;;;27.33;16.56934;952.976;;;;
2019/04/25 13:11:23;;;;;;;10.8;0.9;;;;;;;27.62;16.51953;952.9753;;;;
2019/04/25 13:13:48;;;;;;;6.7;0.8;;;;;;;27.41;15.97559;952.8741;;;;
2019/04/25 13:16:17;;;;;;;5.6;0.8;;;;;;;27.62;16.49512;952.811;;;;
2019/04/25 13:18:42;;;;;;;3.2;0.7;;;;;;;27.67;16.77734;952.9711;;;;
2019/04/25 13:21:07;;;;;;;2.6;0.8;;;;;;;27.79;16.5498;952.8361;;;;
2019/04/25 13:23:32;;;;;;;2.2;0.7;;;;;;;27.76;16.45117;952.7636;;;;
2019/04/25 13:26:08;;;;;;;4;0.7;;;;;;;27.8;16.29492;952.767;;;;
2019/04/25 13:28:57;;;;;;;5.2;1;;;;;;;27.43;16.41504;952.8851;;;;
2019/04/25 13:33:51;;;;;;;5.9;1.1;;;;;;;27.23;16.37109;952.805;;;;
2019/04/25 13:36:09;;;;;;;2;0.7;;;;;;;27.27;17.06641;952.9094;;;;
2019/04/25 13:38:32;;;;;;;3.6;0.7;;;;;;;27.17;16.51563;952.8951;;;;
2019/04/25 13:41:00;;;;;;;3.2;0.7;;;;;;;27.2;15.90723;952.8795;;;;
2019/04/25 13:43:25;;;;;;;2.5;0.8;;;;;;;27.39;16.4375;952.7728;;;;
2019/04/25 13:45:52;;;;;;;4.3;0.7;;;;;;;27.51;16.64941;952.6593;;;;
2019/04/25 13:48:17;;;;;;;2.4;0.9;;;;;;;27.47;16.78223;952.7056;;;;
2019/04/25 13:50:42;;;;;;;1.4;0.7;;;;;;;27.41;16.3291;952.704;;;;
2019/04/25 13:53:18;;;;;;;3;0.8;;;;;;;27.39;16.42578;952.6869;;;;
2019/04/25 13:55:43;;;;;;;7.2;0.8;;;;;;;27.5;17.16016;952.6403;;;;
2019/04/25 13:58:09;;;;;;;7.8;0.9;;;;;;;27.38;16.99805;952.7556;;;;
2019/04/25 14:00:34;;;;;;;3.1;0.8;;;;;;;27.37;17.39941;952.6528;;;;
2019/04/25 14:02:59;;;;;;;3.9;0.8;;;;;;;27.14;16.86719;952.6758;;;;
2019/04/25 14:05:24;;;;;;;5.7;1.1;;;;;;;27.18;17.19727;952.7195;;;;
2019/04/25 14:07:50;;;;;;;5.3;0.9;;;;;;;27.3;16.67773;952.6879;;;;
2019/04/25 14:10:15;;;;;;;6.3;1;;;;;;;27.34;17.1416;952.7104;;;;
2019/04/25 14:12:40;;;;;;;4.6;1.1;;;;;;;27.23;17.04102;952.6253;;;;
2019/04/25 14:15:13;;;;;;;5.8;1.1;;;;;;;27.29;16.86035;952.6727;;;;
2019/04/25 14:17:50;;;;;;;4.5;1;;;;;;;27.26;16.9082;952.6138;;;;
2019/04/25 14:20:12;;;;;;;5.8;0.9;;;;;;;27.33;16.88574;952.5291;;;;
2019/04/25 14:22:23;;;;;;;6.3;1;;;;;;;27.37;17.33789;952.4084;;;;
2019/04/25 14:24:50;;;;;;;3.4;0.9;;;;;;;27.33;17.19043;952.3954;;;;
2019/04/25 14:27:15;;;;;;;4.4;1.1;;;;;;;27.23;17.1748;952.3869;;;;
2019/04/25 14:29:40;;;;;;;4.5;1;;;;;;;27.38;16.30371;952.4542;;;;
2019/04/25 14:32:06;;;;;;;8.2;0.9;;;;;;;27.25;15.26367;952.3942;;;;
2019/04/25 14:34:31;;;;;;;4.1;0.8;;;;;;;27.5;15.29688;952.346;;;;
2019/04/25 14:36:56;;;;;;;5.4;1.1;;;;;;;27.43;15.03906;952.3198;;;;
2019/04/25 14:39:21;;;;;;;5.9;1;;;;;;;27.56;15.25;952.3456;;;;
2019/04/25 14:41:46;;;;;;;2.8;0.7;;;;;;;27.42;15.03906;952.2912;;;;
2019/04/25 14:44:11;;;;;;;8.1;1;;;;;;;27.45;15.83105;952.3235;;;;
2019/04/25 14:46:36;;;;;;;7.1;1.1;;;;;;;27.43;16.68262;952.3064;;;;
2019/04/25 14:49:02;;;;;;;5;0.8;;;;;;;27.45;16.29395;952.356;;;;
2019/04/25 14:51:27;;;;;;;5.5;1.2;;;;;;;27.35;15.36523;952.3187;;;;
2019/04/25 14:54:02;;;;;;;6.9;1;;;;;;;27.37;15.58496;952.353;;;;
2019/04/25 14:56:38;;;;;;;6.4;0.8;;;;;;;27.35;15.01172;952.3855;;;;